sensor_id;sensor_type;location;lat;lon;timestamp;temperature;humidity
17797;DHT22;55596;53.554;9.916;2022-12-20T00:01:18;6.60;99.90
17797;DHT22;55596;53.554;9.916;2022-12-20T00:03:52;6.80;99.90
17797;DHT22;55596;53.554;9.916;2022-12-20T00:06:22;6.80;99.90
17797;DHT22;55596;53.554;9.916;2022-12-20T00:08:52;7.50;99.90
17797;DHT22;55596;53.554;9.916;2022-12-20T00:11:20;6.80;99.90
17797;DHT22;55596;53.554;9.916;2022-12-20T00:13:47;6.90;99.90
17797;DHT22;55596;53.554;9.916;2022-12-20T00:16:15;6.80;99.90
17797;DHT22;55596;53.554;9.916;2022-12-20T00:18:42;7.00;99.90
17797;DHT22;55596;53.554;9.916;2022-12-20T00:21:12;7.80;99.90
17797;DHT22;55596;53.554;9.916;2022-12-20T00:23:40;7.00;99.90
17797;DHT22;55596;53.554;9.916;2022-12-20T00:26:09;9.80;99.90
17797;DHT22;55596;53.554;9.916;2022-12-20T00:28:37;7.10;99.90
17797;DHT22;55596;53.554;9.916;2022-12-20T00:31:06;8.10;99.90
17797;DHT22;55596;53.554;9.916;2022-12-20T00:33:34;6.90;99.90
17797;DHT22;55596;53.554;9.916;2022-12-20T00:36:03;7.00;99.90
17797;DHT22;55596;53.554;9.916;2022-12-20T00:38:32;7.00;99.90
17797;DHT22;55596;53.554;9.916;2022-12-20T00:41:00;7.00;99.90
17797;DHT22;55596;53.554;9.916;2022-12-20T00:43:27;7.00;99.90
17797;DHT22;55596;53.554;9.916;2022-12-20T00:45:54;7.10;99.90
17797;DHT22;55596;53.554;9.916;2022-12-20T00:48:21;7.10;99.90
17797;DHT22;55596;53.554;9.916;2022-12-20T00:50:49;7.10;99.90
17797;DHT22;55596;53.554;9.916;2022-12-20T00:53:16;7.10;99.90
17797;DHT22;55596;53.554;9.916;2022-12-20T00:55:46;7.00;99.90
17797;DHT22;55596;53.554;9.916;2022-12-20T00:58:13;6.80;99.90
17797;DHT22;55596;53.554;9.916;2022-12-20T01:00:40;7.00;99.90
17797;DHT22;55596;53.554;9.916;2022-12-20T01:03:07;7.20;99.90
17797;DHT22;55596;53.554;9.916;2022-12-20T01:05:34;7.00;99.90
17797;DHT22;55596;53.554;9.916;2022-12-20T01:08:02;8.20;99.90
17797;DHT22;55596;53.554;9.916;2022-12-20T01:10:29;6.90;99.90
17797;DHT22;55596;53.554;9.916;2022-12-20T01:12:57;7.00;99.90
17797;DHT22;55596;53.554;9.916;2022-12-20T01:15:24;7.00;99.90
17797;DHT22;55596;53.554;9.916;2022-12-20T01:17:51;7.70;99.90
17797;DHT22;55596;53.554;9.916;2022-12-20T01:20:18;7.00;99.90
17797;DHT22;55596;53.554;9.916;2022-12-20T01:22:45;7.00;99.90
17797;DHT22;55596;53.554;9.916;2022-12-20T01:25:12;7.10;99.90
17797;DHT22;55596;53.554;9.916;2022-12-20T01:27:38;7.20;99.90
17797;DHT22;55596;53.554;9.916;2022-12-20T01:30:08;7.30;99.90
17797;DHT22;55596;53.554;9.916;2022-12-20T01:32:35;7.30;99.90
17797;DHT22;55596;53.554;9.916;2022-12-20T01:35:02;7.40;99.90
17797;DHT22;55596;53.554;9.916;2022-12-20T01:37:30;7.40;99.90
17797;DHT22;55596;53.554;9.916;2022-12-20T01:39:57;7.40;99.90
17797;DHT22;55596;53.554;9.916;2022-12-20T01:42:24;7.40;99.90
17797;DHT22;55596;53.554;9.916;2022-12-20T01:44:56;7.60;99.90
17797;DHT22;55596;53.554;9.916;2022-12-20T01:47:26;7.60;99.90
17797;DHT22;55596;53.554;9.916;2022-12-20T01:49:56;7.60;99.90
17797;DHT22;55596;53.554;9.916;2022-12-20T01:52:28;7.60;99.90
17797;DHT22;55596;53.554;9.916;2022-12-20T01:55:01;7.70;99.90
17797;DHT22;55596;53.554;9.916;2022-12-20T01:57:32;7.70;99.90
17797;DHT22;55596;53.554;9.916;2022-12-20T02:00:00;7.70;99.90
17797;DHT22;55596;53.554;9.916;2022-12-20T02:02:31;8.50;99.90
17797;DHT22;55596;53.554;9.916;2022-12-20T02:04:58;7.70;99.90
17797;DHT22;55596;53.554;9.916;2022-12-20T02:07:26;7.80;99.90
17797;DHT22;55596;53.554;9.916;2022-12-20T02:09:55;8.00;99.90
17797;DHT22;55596;53.554;9.916;2022-12-20T02:12:25;7.80;99.90
17797;DHT22;55596;53.554;9.916;2022-12-20T02:15:05;7.80;99.90
17797;DHT22;55596;53.554;9.916;2022-12-20T02:17:44;8.10;99.90
17797;DHT22;55596;53.554;9.916;2022-12-20T02:20:36;7.80;99.90
17797;DHT22;55596;53.554;9.916;2022-12-20T02:26:35;8.00;99.90
17797;DHT22;55596;53.554;9.916;2022-12-20T02:29:19;8.00;99.90
17797;DHT22;55596;53.554;9.916;2022-12-20T02:31:52;8.00;99.90
17797;DHT22;55596;53.554;9.916;2022-12-20T02:34:22;8.10;99.90
17797;DHT22;55596;53.554;9.916;2022-12-20T02:36:50;8.10;99.90
17797;DHT22;55596;53.554;9.916;2022-12-20T02:39:17;8.10;99.90
17797;DHT22;55596;53.554;9.916;2022-12-20T02:41:48;8.10;99.90
17797;DHT22;55596;53.554;9.916;2022-12-20T02:44:18;8.20;99.90
17797;DHT22;55596;53.554;9.916;2022-12-20T02:47:09;8.50;99.90
17797;DHT22;55596;53.554;9.916;2022-12-20T02:49:38;8.20;99.90
17797;DHT22;55596;53.554;9.916;2022-12-20T02:52:08;8.20;99.90
17797;DHT22;55596;53.554;9.916;2022-12-20T02:54:37;8.30;99.90
17797;DHT22;55596;53.554;9.916;2022-12-20T02:57:09;8.20;99.90
17797;DHT22;55596;53.554;9.916;2022-12-20T02:59:40;8.30;99.90
17797;DHT22;55596;53.554;9.916;2022-12-20T03:02:10;8.30;99.90
17797;DHT22;55596;53.554;9.916;2022-12-20T03:04:39;8.40;99.90
17797;DHT22;55596;53.554;9.916;2022-12-20T03:07:09;8.40;99.90
17797;DHT22;55596;53.554;9.916;2022-12-20T03:09:38;8.50;99.90
17797;DHT22;55596;53.554;9.916;2022-12-20T03:12:06;8.40;99.90
17797;DHT22;55596;53.554;9.916;2022-12-20T03:14:33;8.40;99.90
17797;DHT22;55596;53.554;9.916;2022-12-20T03:17:00;8.40;99.90
17797;DHT22;55596;53.554;9.916;2022-12-20T03:19:29;10.30;99.90
17797;DHT22;55596;53.554;9.916;2022-12-20T03:21:56;8.50;99.90
17797;DHT22;55596;53.554;9.916;2022-12-20T03:24:23;8.50;99.90
17797;DHT22;55596;53.554;9.916;2022-12-20T03:26:50;10.20;99.90
17797;DHT22;55596;53.554;9.916;2022-12-20T03:29:17;8.60;99.90
17797;DHT22;55596;53.554;9.916;2022-12-20T03:31:43;8.60;99.90
17797;DHT22;55596;53.554;9.916;2022-12-20T03:34:10;8.60;99.90
17797;DHT22;55596;53.554;9.916;2022-12-20T03:36:39;8.80;99.90
17797;DHT22;55596;53.554;9.916;2022-12-20T03:39:05;8.70;99.90
17797;DHT22;55596;53.554;9.916;2022-12-20T03:41:32;8.70;99.90
17797;DHT22;55596;53.554;9.916;2022-12-20T03:43:59;8.80;99.90
17797;DHT22;55596;53.554;9.916;2022-12-20T03:46:26;8.80;99.90
17797;DHT22;55596;53.554;9.916;2022-12-20T03:48:53;8.80;99.90
17797;DHT22;55596;53.554;9.916;2022-12-20T03:51:20;8.80;99.90
17797;DHT22;55596;53.554;9.916;2022-12-20T03:53:48;8.80;99.90
17797;DHT22;55596;53.554;9.916;2022-12-20T03:56:15;8.80;99.90
17797;DHT22;55596;53.554;9.916;2022-12-20T03:58:42;8.80;99.90
17797;DHT22;55596;53.554;9.916;2022-12-20T04:01:20;8.90;99.90
17797;DHT22;55596;53.554;9.916;2022-12-20T04:03:47;8.70;99.90
17797;DHT22;55596;53.554;9.916;2022-12-20T04:06:15;8.70;99.90
17797;DHT22;55596;53.554;9.916;2022-12-20T04:08:42;8.80;99.90
17797;DHT22;55596;53.554;9.916;2022-12-20T04:11:11;8.80;99.90
17797;DHT22;55596;53.554;9.916;2022-12-20T04:13:45;10.80;99.90
17797;DHT22;55596;53.554;9.916;2022-12-20T04:16:12;8.80;99.90
17797;DHT22;55596;53.554;9.916;2022-12-20T04:18:40;8.80;99.90
17797;DHT22;55596;53.554;9.916;2022-12-20T04:21:07;8.80;99.90
17797;DHT22;55596;53.554;9.916;2022-12-20T04:23:35;8.80;99.90
17797;DHT22;55596;53.554;9.916;2022-12-20T04:26:03;8.90;99.90
17797;DHT22;55596;53.554;9.916;2022-12-20T04:28:32;8.80;99.90
17797;DHT22;55596;53.554;9.916;2022-12-20T04:31:00;8.80;99.90
17797;DHT22;55596;53.554;9.916;2022-12-20T04:33:27;8.80;99.90
17797;DHT22;55596;53.554;9.916;2022-12-20T04:35:54;9.10;99.90
17797;DHT22;55596;53.554;9.916;2022-12-20T04:38:23;8.90;99.90
17797;DHT22;55596;53.554;9.916;2022-12-20T04:40:50;8.90;99.90
17797;DHT22;55596;53.554;9.916;2022-12-20T04:43:18;8.90;99.90
17797;DHT22;55596;53.554;9.916;2022-12-20T04:45:48;10.90;99.90
17797;DHT22;55596;53.554;9.916;2022-12-20T04:48:15;8.90;99.90
17797;DHT22;55596;53.554;9.916;2022-12-20T04:50:42;9.00;99.90
17797;DHT22;55596;53.554;9.916;2022-12-20T04:53:10;9.00;99.90
17797;DHT22;55596;53.554;9.916;2022-12-20T04:55:54;9.00;99.90
17797;DHT22;55596;53.554;9.916;2022-12-20T04:58:21;9.00;99.90
17797;DHT22;55596;53.554;9.916;2022-12-20T05:00:49;8.90;99.90
17797;DHT22;55596;53.554;9.916;2022-12-20T05:03:17;8.80;99.90
17797;DHT22;55596;53.554;9.916;2022-12-20T05:05:44;8.70;99.90
17797;DHT22;55596;53.554;9.916;2022-12-20T05:08:11;8.60;99.90
17797;DHT22;55596;53.554;9.916;2022-12-20T05:10:38;8.80;99.90
17797;DHT22;55596;53.554;9.916;2022-12-20T05:13:05;8.50;99.90
17797;DHT22;55596;53.554;9.916;2022-12-20T05:15:33;8.40;99.90
17797;DHT22;55596;53.554;9.916;2022-12-20T05:18:01;8.20;99.90
17797;DHT22;55596;53.554;9.916;2022-12-20T05:20:29;8.30;99.90
17797;DHT22;55596;53.554;9.916;2022-12-20T05:22:56;8.40;99.90
17797;DHT22;55596;53.554;9.916;2022-12-20T05:25:44;8.20;99.90
17797;DHT22;55596;53.554;9.916;2022-12-20T05:28:29;8.20;99.90
17797;DHT22;55596;53.554;9.916;2022-12-20T05:30:56;8.30;99.90
17797;DHT22;55596;53.554;9.916;2022-12-20T05:33:25;8.30;99.90
17797;DHT22;55596;53.554;9.916;2022-12-20T05:35:52;8.20;99.90
17797;DHT22;55596;53.554;9.916;2022-12-20T05:38:19;8.30;99.90
17797;DHT22;55596;53.554;9.916;2022-12-20T05:40:46;8.30;99.90
17797;DHT22;55596;53.554;9.916;2022-12-20T05:43:14;9.00;99.90
17797;DHT22;55596;53.554;9.916;2022-12-20T05:45:44;8.20;99.90
17797;DHT22;55596;53.554;9.916;2022-12-20T05:50:40;8.30;99.90
17797;DHT22;55596;53.554;9.916;2022-12-20T05:53:09;8.30;99.90
17797;DHT22;55596;53.554;9.916;2022-12-20T05:55:35;8.30;99.90
17797;DHT22;55596;53.554;9.916;2022-12-20T05:58:05;8.20;99.90
17797;DHT22;55596;53.554;9.916;2022-12-20T06:00:32;8.30;99.90
17797;DHT22;55596;53.554;9.916;2022-12-20T06:02:59;8.10;99.90
17797;DHT22;55596;53.554;9.916;2022-12-20T06:05:26;8.30;99.90
17797;DHT22;55596;53.554;9.916;2022-12-20T06:07:54;8.20;99.90
17797;DHT22;55596;53.554;9.916;2022-12-20T06:10:21;8.40;99.90
17797;DHT22;55596;53.554;9.916;2022-12-20T06:12:47;8.30;99.90
17797;DHT22;55596;53.554;9.916;2022-12-20T06:15:14;8.30;99.90
17797;DHT22;55596;53.554;9.916;2022-12-20T06:17:41;8.30;99.90
17797;DHT22;55596;53.554;9.916;2022-12-20T06:20:09;8.40;99.90
17797;DHT22;55596;53.554;9.916;2022-12-20T06:25:07;8.50;99.90
17797;DHT22;55596;53.554;9.916;2022-12-20T06:27:34;8.30;99.90
17797;DHT22;55596;53.554;9.916;2022-12-20T06:30:02;8.50;99.90
17797;DHT22;55596;53.554;9.916;2022-12-20T06:32:29;8.60;99.90
17797;DHT22;55596;53.554;9.916;2022-12-20T06:34:56;8.50;99.90
17797;DHT22;55596;53.554;9.916;2022-12-20T06:37:23;8.70;99.90
17797;DHT22;55596;53.554;9.916;2022-12-20T06:39:49;8.60;99.90
17797;DHT22;55596;53.554;9.916;2022-12-20T06:42:18;8.60;99.90
17797;DHT22;55596;53.554;9.916;2022-12-20T06:44:45;8.60;99.90
17797;DHT22;55596;53.554;9.916;2022-12-20T06:49:39;8.60;99.90
17797;DHT22;55596;53.554;9.916;2022-12-20T06:52:05;8.60;99.90
17797;DHT22;55596;53.554;9.916;2022-12-20T06:54:32;8.60;99.90
17797;DHT22;55596;53.554;9.916;2022-12-20T06:56:59;8.80;99.90
17797;DHT22;55596;53.554;9.916;2022-12-20T06:59:27;8.80;99.90
17797;DHT22;55596;53.554;9.916;2022-12-20T07:01:54;8.70;99.90
17797;DHT22;55596;53.554;9.916;2022-12-20T07:04:21;8.90;99.90
17797;DHT22;55596;53.554;9.916;2022-12-20T07:06:48;9.00;99.90
17797;DHT22;55596;53.554;9.916;2022-12-20T07:09:15;8.90;99.90
17797;DHT22;55596;53.554;9.916;2022-12-20T07:11:42;8.90;99.90
17797;DHT22;55596;53.554;9.916;2022-12-20T07:14:09;9.00;99.90
17797;DHT22;55596;53.554;9.916;2022-12-20T07:16:38;8.90;99.90
17797;DHT22;55596;53.554;9.916;2022-12-20T07:19:06;8.80;99.90
17797;DHT22;55596;53.554;9.916;2022-12-20T07:21:32;8.90;99.90
17797;DHT22;55596;53.554;9.916;2022-12-20T07:24:00;8.70;99.90
17797;DHT22;55596;53.554;9.916;2022-12-20T07:26:26;9.00;99.90
17797;DHT22;55596;53.554;9.916;2022-12-20T07:28:53;10.90;99.90
17797;DHT22;55596;53.554;9.916;2022-12-20T07:31:21;8.80;99.90
17797;DHT22;55596;53.554;9.916;2022-12-20T07:33:49;8.80;99.90
17797;DHT22;55596;53.554;9.916;2022-12-20T07:36:16;8.80;99.90
17797;DHT22;55596;53.554;9.916;2022-12-20T07:38:43;8.90;99.90
17797;DHT22;55596;53.554;9.916;2022-12-20T07:41:11;8.80;99.90
17797;DHT22;55596;53.554;9.916;2022-12-20T07:43:38;8.90;99.90
17797;DHT22;55596;53.554;9.916;2022-12-20T07:46:06;8.90;99.90
17797;DHT22;55596;53.554;9.916;2022-12-20T07:48:34;8.80;99.90
17797;DHT22;55596;53.554;9.916;2022-12-20T07:51:05;8.70;99.90
17797;DHT22;55596;53.554;9.916;2022-12-20T07:53:35;8.80;99.90
17797;DHT22;55596;53.554;9.916;2022-12-20T07:56:05;8.80;99.90
17797;DHT22;55596;53.554;9.916;2022-12-20T07:58:34;8.90;99.90
17797;DHT22;55596;53.554;9.916;2022-12-20T08:01:02;8.90;99.90
17797;DHT22;55596;53.554;9.916;2022-12-20T08:03:33;9.00;99.90
17797;DHT22;55596;53.554;9.916;2022-12-20T08:06:05;9.00;99.90
17797;DHT22;55596;53.554;9.916;2022-12-20T08:08:34;9.00;99.90
17797;DHT22;55596;53.554;9.916;2022-12-20T08:11:02;9.10;99.90
17797;DHT22;55596;53.554;9.916;2022-12-20T08:13:31;9.00;99.90
17797;DHT22;55596;53.554;9.916;2022-12-20T08:15:59;10.90;99.90
17797;DHT22;55596;53.554;9.916;2022-12-20T08:18:26;8.80;99.90
17797;DHT22;55596;53.554;9.916;2022-12-20T08:20:53;9.00;99.90
17797;DHT22;55596;53.554;9.916;2022-12-20T08:23:22;9.80;99.90
17797;DHT22;55596;53.554;9.916;2022-12-20T08:25:49;9.20;99.90
17797;DHT22;55596;53.554;9.916;2022-12-20T08:28:16;9.20;99.90
17797;DHT22;55596;53.554;9.916;2022-12-20T08:30:48;9.00;99.90
17797;DHT22;55596;53.554;9.916;2022-12-20T08:33:21;9.10;99.90
17797;DHT22;55596;53.554;9.916;2022-12-20T08:35:57;9.40;99.90
17797;DHT22;55596;53.554;9.916;2022-12-20T08:38:29;9.40;99.90
17797;DHT22;55596;53.554;9.916;2022-12-20T08:41:01;9.50;99.90
17797;DHT22;55596;53.554;9.916;2022-12-20T08:43:28;9.40;99.90
17797;DHT22;55596;53.554;9.916;2022-12-20T08:45:55;9.50;99.90
17797;DHT22;55596;53.554;9.916;2022-12-20T08:48:22;9.70;99.90
17797;DHT22;55596;53.554;9.916;2022-12-20T08:50:53;9.50;99.90
17797;DHT22;55596;53.554;9.916;2022-12-20T08:53:20;9.60;99.90
17797;DHT22;55596;53.554;9.916;2022-12-20T08:55:48;9.60;99.90
17797;DHT22;55596;53.554;9.916;2022-12-20T08:58:16;9.40;99.90
17797;DHT22;55596;53.554;9.916;2022-12-20T09:00:43;9.60;99.90
17797;DHT22;55596;53.554;9.916;2022-12-20T09:03:10;9.50;99.90
17797;DHT22;55596;53.554;9.916;2022-12-20T09:05:43;9.80;99.90
17797;DHT22;55596;53.554;9.916;2022-12-20T09:08:11;9.70;99.90
17797;DHT22;55596;53.554;9.916;2022-12-20T09:10:38;9.70;99.90
17797;DHT22;55596;53.554;9.916;2022-12-20T09:13:06;12.30;99.90
17797;DHT22;55596;53.554;9.916;2022-12-20T09:15:35;8.80;99.90
17797;DHT22;55596;53.554;9.916;2022-12-20T09:18:02;9.80;99.90
17797;DHT22;55596;53.554;9.916;2022-12-20T09:20:30;9.90;99.90
17797;DHT22;55596;53.554;9.916;2022-12-20T09:22:57;9.80;99.90
17797;DHT22;55596;53.554;9.916;2022-12-20T09:25:25;10.10;99.90
17797;DHT22;55596;53.554;9.916;2022-12-20T09:27:52;11.10;99.90
17797;DHT22;55596;53.554;9.916;2022-12-20T09:30:21;12.30;99.90
17797;DHT22;55596;53.554;9.916;2022-12-20T09:32:48;10.00;99.90
17797;DHT22;55596;53.554;9.916;2022-12-20T09:35:15;10.10;99.90
17797;DHT22;55596;53.554;9.916;2022-12-20T09:37:42;10.10;99.90
17797;DHT22;55596;53.554;9.916;2022-12-20T09:40:16;10.00;99.90
17797;DHT22;55596;53.554;9.916;2022-12-20T09:42:46;10.20;99.90
17797;DHT22;55596;53.554;9.916;2022-12-20T09:45:22;10.30;99.90
17797;DHT22;55596;53.554;9.916;2022-12-20T09:47:50;10.20;99.90
17797;DHT22;55596;53.554;9.916;2022-12-20T09:50:20;10.20;99.90
17797;DHT22;55596;53.554;9.916;2022-12-20T09:53:04;12.30;99.90
17797;DHT22;55596;53.554;9.916;2022-12-20T09:55:40;10.10;99.90
17797;DHT22;55596;53.554;9.916;2022-12-20T09:58:23;10.20;99.90
17797;DHT22;55596;53.554;9.916;2022-12-20T10:00:55;10.60;99.90
17797;DHT22;55596;53.554;9.916;2022-12-20T10:03:26;11.20;99.90
17797;DHT22;55596;53.554;9.916;2022-12-20T10:05:57;10.00;99.90
17797;DHT22;55596;53.554;9.916;2022-12-20T10:08:41;9.80;99.90
17797;DHT22;55596;53.554;9.916;2022-12-20T10:11:19;10.10;99.90
17797;DHT22;55596;53.554;9.916;2022-12-20T10:13:56;9.70;99.90
17797;DHT22;55596;53.554;9.916;2022-12-20T10:16:38;9.70;99.90
17797;DHT22;55596;53.554;9.916;2022-12-20T10:19:27;9.80;99.90
17797;DHT22;55596;53.554;9.916;2022-12-20T10:22:05;9.80;99.90
17797;DHT22;55596;53.554;9.916;2022-12-20T10:24:34;9.90;99.90
17797;DHT22;55596;53.554;9.916;2022-12-20T10:27:09;9.80;99.90
17797;DHT22;55596;53.554;9.916;2022-12-20T10:29:39;10.10;99.90
17797;DHT22;55596;53.554;9.916;2022-12-20T10:32:13;10.20;99.90
17797;DHT22;55596;53.554;9.916;2022-12-20T10:34:46;10.30;99.90
17797;DHT22;55596;53.554;9.916;2022-12-20T10:37:16;10.30;99.90
17797;DHT22;55596;53.554;9.916;2022-12-20T10:39:47;10.50;99.90
17797;DHT22;55596;53.554;9.916;2022-12-20T10:42:25;10.60;99.90
17797;DHT22;55596;53.554;9.916;2022-12-20T10:44:54;10.70;99.90
17797;DHT22;55596;53.554;9.916;2022-12-20T10:47:35;10.70;99.90
17797;DHT22;55596;53.554;9.916;2022-12-20T10:50:13;10.90;99.90
17797;DHT22;55596;53.554;9.916;2022-12-20T10:52:41;10.90;99.90
17797;DHT22;55596;53.554;9.916;2022-12-20T10:55:41;11.20;99.90
17797;DHT22;55596;53.554;9.916;2022-12-20T10:58:13;11.10;99.90
17797;DHT22;55596;53.554;9.916;2022-12-20T11:00:41;11.10;99.90
17797;DHT22;55596;53.554;9.916;2022-12-20T11:03:16;11.10;99.90
17797;DHT22;55596;53.554;9.916;2022-12-20T11:05:55;11.40;99.90
17797;DHT22;55596;53.554;9.916;2022-12-20T11:08:25;11.00;99.90
17797;DHT22;55596;53.554;9.916;2022-12-20T11:11:11;11.20;99.90
17797;DHT22;55596;53.554;9.916;2022-12-20T11:13:39;11.40;99.90
17797;DHT22;55596;53.554;9.916;2022-12-20T11:16:21;11.50;99.90
17797;DHT22;55596;53.554;9.916;2022-12-20T11:19:05;12.60;99.90
17797;DHT22;55596;53.554;9.916;2022-12-20T11:21:43;11.60;99.90
17797;DHT22;55596;53.554;9.916;2022-12-20T11:24:21;11.90;99.90
17797;DHT22;55596;53.554;9.916;2022-12-20T11:27:00;11.50;99.90
17797;DHT22;55596;53.554;9.916;2022-12-20T11:29:41;11.30;99.90
17797;DHT22;55596;53.554;9.916;2022-12-20T11:32:23;11.40;99.90
17797;DHT22;55596;53.554;9.916;2022-12-20T11:34:58;11.30;99.90
17797;DHT22;55596;53.554;9.916;2022-12-20T11:37:34;11.40;99.90
17797;DHT22;55596;53.554;9.916;2022-12-20T11:40:25;11.50;99.90
17797;DHT22;55596;53.554;9.916;2022-12-20T11:43:14;11.30;99.90
17797;DHT22;55596;53.554;9.916;2022-12-20T11:45:53;11.40;99.90
17797;DHT22;55596;53.554;9.916;2022-12-20T11:48:36;12.60;99.90
17797;DHT22;55596;53.554;9.916;2022-12-20T11:51:14;11.30;99.90
17797;DHT22;55596;53.554;9.916;2022-12-20T11:53:52;11.20;99.90
17797;DHT22;55596;53.554;9.916;2022-12-20T11:56:24;11.50;99.90
17797;DHT22;55596;53.554;9.916;2022-12-20T11:58:55;11.40;99.90
17797;DHT22;55596;53.554;9.916;2022-12-20T12:01:28;11.30;99.90
17797;DHT22;55596;53.554;9.916;2022-12-20T12:04:04;11.40;99.90
17797;DHT22;55596;53.554;9.916;2022-12-20T12:06:37;11.10;99.90
17797;DHT22;55596;53.554;9.916;2022-12-20T12:09:12;11.30;99.90
17797;DHT22;55596;53.554;9.916;2022-12-20T12:11:46;12.40;99.90
17797;DHT22;55596;53.554;9.916;2022-12-20T12:14:22;12.00;99.90
17797;DHT22;55596;53.554;9.916;2022-12-20T12:16:56;11.20;99.90
17797;DHT22;55596;53.554;9.916;2022-12-20T12:19:29;11.10;99.90
17797;DHT22;55596;53.554;9.916;2022-12-20T12:22:01;11.00;99.90
17797;DHT22;55596;53.554;9.916;2022-12-20T12:24:36;11.50;99.90
17797;DHT22;55596;53.554;9.916;2022-12-20T12:27:11;10.90;99.90
17797;DHT22;55596;53.554;9.916;2022-12-20T12:29:47;10.80;99.90
17797;DHT22;55596;53.554;9.916;2022-12-20T12:32:25;10.60;99.90
17797;DHT22;55596;53.554;9.916;2022-12-20T12:35:04;12.20;99.90
17797;DHT22;55596;53.554;9.916;2022-12-20T12:37:54;10.40;99.90
17797;DHT22;55596;53.554;9.916;2022-12-20T12:40:56;11.80;99.90
17797;DHT22;55596;53.554;9.916;2022-12-20T12:43:51;10.30;99.90
17797;DHT22;55596;53.554;9.916;2022-12-20T12:46:23;10.90;99.90
17797;DHT22;55596;53.554;9.916;2022-12-20T12:48:56;9.70;99.90
17797;DHT22;55596;53.554;9.916;2022-12-20T12:51:28;9.70;99.90
17797;DHT22;55596;53.554;9.916;2022-12-20T12:54:16;9.70;99.90
17797;DHT22;55596;53.554;9.916;2022-12-20T12:56:44;9.50;99.90
17797;DHT22;55596;53.554;9.916;2022-12-20T13:02:35;9.30;99.90
17797;DHT22;55596;53.554;9.916;2022-12-20T13:05:31;9.40;99.90
17797;DHT22;55596;53.554;9.916;2022-12-20T13:07:59;9.40;99.90
17797;DHT22;55596;53.554;9.916;2022-12-20T13:10:57;9.30;99.90
17797;DHT22;55596;53.554;9.916;2022-12-20T13:13:25;9.40;99.90
17797;DHT22;55596;53.554;9.916;2022-12-20T13:16:08;9.30;99.90
17797;DHT22;55596;53.554;9.916;2022-12-20T13:18:35;9.40;99.90
17797;DHT22;55596;53.554;9.916;2022-12-20T13:21:31;9.30;99.90
17797;DHT22;55596;53.554;9.916;2022-12-20T13:27:24;9.20;99.90
17797;DHT22;55596;53.554;9.916;2022-12-20T13:29:58;9.30;99.90
17797;DHT22;55596;53.554;9.916;2022-12-20T13:32:52;9.20;99.90
17797;DHT22;55596;53.554;9.916;2022-12-20T13:35:46;9.30;99.90
17797;DHT22;55596;53.554;9.916;2022-12-20T13:38:36;9.30;99.90
17797;DHT22;55596;53.554;9.916;2022-12-20T13:41:11;9.10;99.90
17797;DHT22;55596;53.554;9.916;2022-12-20T13:43:45;9.10;99.90
17797;DHT22;55596;53.554;9.916;2022-12-20T13:46:19;9.20;99.90
17797;DHT22;55596;53.554;9.916;2022-12-20T13:48:50;11.40;99.90
17797;DHT22;55596;53.554;9.916;2022-12-20T13:51:19;9.10;99.90
17797;DHT22;55596;53.554;9.916;2022-12-20T13:53:52;9.00;99.90
17797;DHT22;55596;53.554;9.916;2022-12-20T13:56:32;9.10;99.90
17797;DHT22;55596;53.554;9.916;2022-12-20T13:59:06;9.10;99.90
17797;DHT22;55596;53.554;9.916;2022-12-20T14:01:33;9.20;99.90
17797;DHT22;55596;53.554;9.916;2022-12-20T14:04:03;10.00;99.90
17797;DHT22;55596;53.554;9.916;2022-12-20T14:06:32;9.10;99.90
17797;DHT22;55596;53.554;9.916;2022-12-20T14:09:00;9.10;99.90
17797;DHT22;55596;53.554;9.916;2022-12-20T14:11:27;11.20;99.90
17797;DHT22;55596;53.554;9.916;2022-12-20T14:13:55;9.60;99.90
17797;DHT22;55596;53.554;9.916;2022-12-20T14:16:26;9.10;99.90
17797;DHT22;55596;53.554;9.916;2022-12-20T14:19:00;9.00;99.90
17797;DHT22;55596;53.554;9.916;2022-12-20T14:21:28;9.10;99.90
17797;DHT22;55596;53.554;9.916;2022-12-20T14:23:56;8.90;99.90
17797;DHT22;55596;53.554;9.916;2022-12-20T14:26:26;9.10;99.90
17797;DHT22;55596;53.554;9.916;2022-12-20T14:28:55;8.90;99.90
17797;DHT22;55596;53.554;9.916;2022-12-20T14:31:25;9.00;99.90
17797;DHT22;55596;53.554;9.916;2022-12-20T14:34:04;9.00;99.90
17797;DHT22;55596;53.554;9.916;2022-12-20T14:36:31;8.90;99.90
17797;DHT22;55596;53.554;9.916;2022-12-20T14:38:59;8.80;99.90
17797;DHT22;55596;53.554;9.916;2022-12-20T14:41:34;8.90;99.90
17797;DHT22;55596;53.554;9.916;2022-12-20T14:44:12;9.00;99.90
17797;DHT22;55596;53.554;9.916;2022-12-20T14:46:46;8.90;99.90
17797;DHT22;55596;53.554;9.916;2022-12-20T14:49:19;8.90;99.90
17797;DHT22;55596;53.554;9.916;2022-12-20T14:51:47;8.80;99.90
17797;DHT22;55596;53.554;9.916;2022-12-20T14:54:17;8.80;99.90
17797;DHT22;55596;53.554;9.916;2022-12-20T14:56:46;8.80;99.90
17797;DHT22;55596;53.554;9.916;2022-12-20T14:59:15;10.20;99.90
17797;DHT22;55596;53.554;9.916;2022-12-20T15:01:44;8.90;99.90
17797;DHT22;55596;53.554;9.916;2022-12-20T15:04:23;9.80;99.90
17797;DHT22;55596;53.554;9.916;2022-12-20T15:06:51;8.70;99.90
17797;DHT22;55596;53.554;9.916;2022-12-20T15:09:18;8.80;99.90
17797;DHT22;55596;53.554;9.916;2022-12-20T15:11:46;8.90;99.90
17797;DHT22;55596;53.554;9.916;2022-12-20T15:14:23;9.60;99.90
17797;DHT22;55596;53.554;9.916;2022-12-20T15:16:53;8.70;99.90
17797;DHT22;55596;53.554;9.916;2022-12-20T15:19:20;9.10;99.90
17797;DHT22;55596;53.554;9.916;2022-12-20T15:21:47;9.20;99.90
17797;DHT22;55596;53.554;9.916;2022-12-20T15:24:16;8.80;99.90
17797;DHT22;55596;53.554;9.916;2022-12-20T15:26:44;9.00;99.90
17797;DHT22;55596;53.554;9.916;2022-12-20T15:29:14;8.80;99.90
17797;DHT22;55596;53.554;9.916;2022-12-20T15:31:42;9.70;99.90
17797;DHT22;55596;53.554;9.916;2022-12-20T15:34:14;9.40;99.90
17797;DHT22;55596;53.554;9.916;2022-12-20T15:36:43;8.60;99.90
17797;DHT22;55596;53.554;9.916;2022-12-20T15:39:11;8.70;99.90
17797;DHT22;55596;53.554;9.916;2022-12-20T15:41:40;8.80;99.90
17797;DHT22;55596;53.554;9.916;2022-12-20T15:44:12;8.80;99.90
17797;DHT22;55596;53.554;9.916;2022-12-20T15:46:40;9.00;99.90
17797;DHT22;55596;53.554;9.916;2022-12-20T15:49:16;8.80;99.90
17797;DHT22;55596;53.554;9.916;2022-12-20T15:51:44;8.80;99.90
17797;DHT22;55596;53.554;9.916;2022-12-20T15:54:19;11.10;99.90
17797;DHT22;55596;53.554;9.916;2022-12-20T15:56:47;8.80;99.90
17797;DHT22;55596;53.554;9.916;2022-12-20T15:59:14;8.90;99.90
17797;DHT22;55596;53.554;9.916;2022-12-20T16:01:40;8.90;99.90
17797;DHT22;55596;53.554;9.916;2022-12-20T16:04:13;8.80;99.90
17797;DHT22;55596;53.554;9.916;2022-12-20T16:06:41;8.80;99.90
17797;DHT22;55596;53.554;9.916;2022-12-20T16:09:09;8.70;99.90
17797;DHT22;55596;53.554;9.916;2022-12-20T16:11:37;8.70;99.90
17797;DHT22;55596;53.554;9.916;2022-12-20T16:14:04;8.80;99.90
17797;DHT22;55596;53.554;9.916;2022-12-20T16:16:33;10.90;99.90
17797;DHT22;55596;53.554;9.916;2022-12-20T16:19:01;8.90;99.90
17797;DHT22;55596;53.554;9.916;2022-12-20T16:21:31;10.00;99.90
17797;DHT22;55596;53.554;9.916;2022-12-20T16:24:00;8.90;99.90